Time;durP1;ratioP1;P1;durP2;ratioP2;P2;SDS_P1;SDS_P2;PMS_P1;PMS_P2;Temp;Humidity;BMP_temperature;BMP_pressure;BME280_temperature;BME280_humidity;BME280_pressure;Samples;Min_cycle;Max_cycle;Signal;HPM_P1;HPM_P2
2020/12/25 00:00:23;;;;;;;2.85;1.40;;;;;;;5.09;100.00;95686.19;4986485;28;20089;-53
2020/12/25 00:02:50;;;;;;;2.22;1.55;;;;;;;5.14;100.00;95690.09;4959225;28;20050;-52
2020/12/25 00:05:18;;;;;;;2.83;1.48;;;;;;;5.15;100.00;95691.72;4982801;28;20035;-54
2020/12/25 00:07:45;;;;;;;1.75;1.50;;;;;;;5.19;100.00;95684.47;4951927;28;20053;-55
2020/12/25 00:10:12;;;;;;;1.88;1.52;;;;;;;5.24;100.00;95690.97;4984977;28;20096;-54
2020/12/25 00:12:39;;;;;;;2.63;1.55;;;;;;;5.26;100.00;95687.38;4939373;28;20047;-55
2020/12/25 00:15:06;;;;;;;2.80;1.52;;;;;;;5.10;100.00;95690.50;4990284;28;20049;-54
2020/12/25 00:17:34;;;;;;;2.38;1.70;;;;;;;5.00;100.00;95693.88;4953782;28;20042;-51
2020/12/25 00:20:03;;;;;;;3.22;1.42;;;;;;;5.14;100.00;95691.88;4986128;28;20046;-53
2020/12/25 00:22:31;;;;;;;2.90;1.50;;;;;;;5.21;100.00;95693.00;4953032;28;20046;-53
2020/12/25 00:24:57;;;;;;;3.38;1.85;;;;;;;5.16;100.00;95693.41;4987057;28;20504;-53
2020/12/25 00:27:25;;;;;;;3.30;1.70;;;;;;;5.22;100.00;95695.47;4945703;28;20034;-49
2020/12/25 00:29:52;;;;;;;2.60;1.80;;;;;;;5.22;100.00;95692.88;4986334;28;20277;-55
2020/12/25 00:32:19;;;;;;;2.67;1.67;;;;;;;5.10;100.00;95687.88;4952731;28;20046;-49
2020/12/25 00:34:47;;;;;;;3.22;2.17;;;;;;;5.17;100.00;95696.84;4986939;28;20093;-54
2020/12/25 00:37:15;;;;;;;2.53;1.60;;;;;;;5.13;100.00;95695.47;4951015;28;20038;-50
2020/12/25 00:39:42;;;;;;;2.20;1.67;;;;;;;5.05;100.00;95697.88;4982384;28;20503;-52
2020/12/25 00:42:10;;;;;;;2.17;1.17;;;;;;;5.05;100.00;95698.69;4980215;28;20035;-54
2020/12/25 00:44:38;;;;;;;0.63;0.60;;;;;;;4.98;100.00;95697.56;4942855;28;20152;-51
2020/12/25 00:47:05;;;;;;;0.47;0.47;;;;;;;4.94;100.00;95696.97;4987940;28;20496;-50
2020/12/25 00:49:32;;;;;;;0.30;0.30;;;;;;;4.84;100.00;95698.72;4943248;28;20058;-53
2020/12/25 00:51:59;;;;;;;0.20;0.20;;;;;;;4.85;100.00;95705.63;4984465;28;20039;-49
2020/12/25 00:54:26;;;;;;;0.40;0.40;;;;;;;4.89;100.00;95717.47;4945789;28;20046;-50
2020/12/25 00:57:01;;;;;;;1.05;0.60;;;;;;;4.83;100.00;95719.75;4979136;28;20042;-51
2020/12/25 00:59:40;;;;;;;0.73;0.60;;;;;;;4.83;100.00;95720.56;4936677;28;20047;-50
2020/12/25 01:02:07;;;;;;;0.57;0.47;;;;;;;4.76;100.00;95714.19;4984322;28;20051;-50
2020/12/25 01:04:34;;;;;;;0.68;0.50;;;;;;;4.80;100.00;95717.38;4946624;28;20097;-54
2020/12/25 01:07:04;;;;;;;1.55;0.80;;;;;;;4.85;100.00;95721.28;4968125;28;20520;-52
2020/12/25 01:09:32;;;;;;;0.93;0.70;;;;;;;4.82;100.00;95720.69;4950645;28;20038;-53
2020/12/25 01:12:00;;;;;;;1.48;0.80;;;;;;;4.80;100.00;95720.00;4991463;28;20042;-51
2020/12/25 01:14:27;;;;;;;0.98;0.70;;;;;;;4.80;100.00;95720.00;4952329;28;20480;-51
2020/12/25 01:16:55;;;;;;;0.90;0.80;;;;;;;4.76;100.00;95722.03;4980797;28;20413;-54
2020/12/25 01:19:22;;;;;;;2.33;0.60;;;;;;;4.64;100.00;95717.81;4949427;28;20568;-50
2020/12/25 01:21:50;;;;;;;0.70;0.50;;;;;;;4.68;100.00;95725.28;4985745;28;20044;-51
2020/12/25 01:24:17;;;;;;;1.20;0.90;;;;;;;4.74;100.00;95727.38;4941988;28;20035;-48
2020/12/25 01:26:45;;;;;;;1.23;0.90;;;;;;;4.73;100.00;95733.56;4986237;28;20044;-52
2020/12/25 01:29:13;;;;;;;2.88;1.02;;;;;;;4.76;100.00;95735.91;4970787;28;20058;-52
2020/12/25 01:31:40;;;;;;;0.90;0.70;;;;;;;4.73;100.00;95735.34;4969119;28;20042;-55
2020/12/25 01:34:07;;;;;;;1.98;0.73;;;;;;;4.76;100.00;95735.91;4982593;28;20034;-51
2020/12/25 01:36:34;;;;;;;1.42;0.93;;;;;;;4.70;100.00;95738.22;4945540;28;20038;-53
2020/12/25 01:39:01;;;;;;;2.25;0.70;;;;;;;4.69;100.00;95729.56;4987793;28;20587;-54
2020/12/25 01:41:28;;;;;;;1.30;1.10;;;;;;;4.67;100.00;95738.47;4942806;28;20129;-55
2020/12/25 01:43:56;;;;;;;0.82;0.80;;;;;;;4.59;100.00;95739.09;4986964;28;20046;-51
2020/12/25 01:46:23;;;;;;;1.20;1.02;;;;;;;4.60;100.00;95740.75;4952775;28;20038;-53
2020/12/25 01:48:51;;;;;;;1.42;1.13;;;;;;;4.60;100.00;95743.34;4982453;28;20405;-49
2020/12/25 01:51:20;;;;;;;0.93;0.80;;;;;;;4.52;100.00;95749.22;4951712;28;20500;-50
2020/12/25 01:53:47;;;;;;;0.90;0.68;;;;;;;4.58;100.00;95752.28;4987836;28;20048;-52
2020/12/25 01:56:15;;;;;;;1.30;0.85;;;;;;;4.55;100.00;95742.09;4942438;28;20469;-49
2020/12/25 01:58:42;;;;;;;2.00;1.13;;;;;;;4.49;100.00;95746.84;4982510;28;20122;-51
2020/12/25 02:01:10;;;;;;;1.30;1.10;;;;;;;4.45;100.00;95749.84;4942467;28;20034;-52
2020/12/25 02:03:38;;;;;;;1.20;0.80;;;;;;;4.41;100.00;95741.44;4982471;28;20117;-51
2020/12/25 02:06:05;;;;;;;0.80;0.80;;;;;;;4.42;100.00;95744.88;4948668;28;20061;-54
2020/12/25 02:08:32;;;;;;;1.67;1.05;;;;;;;4.46;100.00;95744.47;4985709;28;20057;-50
2020/12/25 02:11:00;;;;;;;1.40;0.88;;;;;;;4.44;100.00;95735.09;4932898;28;20073;-51
2020/12/25 02:13:29;;;;;;;1.17;0.90;;;;;;;4.44;100.00;95740.31;4980724;28;20054;-50
2020/12/25 02:15:57;;;;;;;0.83;0.80;;;;;;;4.45;100.00;95742.00;4986012;28;20526;-52
2020/12/25 02:18:33;;;;;;;1.08;0.82;;;;;;;4.42;100.00;95743.06;4943962;28;20042;-52
2020/12/25 02:21:03;;;;;;;0.93;0.82;;;;;;;4.50;100.00;95745.06;4980893;28;20046;-53
2020/12/25 02:23:29;;;;;;;1.10;0.80;;;;;;;4.41;100.00;95746.66;4952333;28;20046;-50
2020/12/25 02:25:57;;;;;;;1.30;0.75;;;;;;;4.36;100.00;95750.56;4984240;28;20042;-51
2020/12/25 02:28:24;;;;;;;1.55;0.70;;;;;;;4.36;100.00;95742.75;4957163;28;20212;-51
2020/12/25 02:30:51;;;;;;;1.75;0.90;;;;;;;4.40;100.00;95746.75;4984731;28;20460;-51
2020/12/25 02:33:18;;;;;;;1.85;1.10;;;;;;;4.45;100.00;95748.06;4948334;28;20050;-53
2020/12/25 02:35:45;;;;;;;2.10;0.85;;;;;;;4.45;100.00;95745.44;4982639;28;20132;-51
2020/12/25 02:38:13;;;;;;;3.25;1.02;;;;;;;4.49;100.00;95749.44;4950552;28;20111;-53
2020/12/25 02:40:40;;;;;;;1.38;1.20;;;;;;;4.49;100.00;95753.84;4989388;28;20044;-50
2020/12/25 02:43:07;;;;;;;1.13;0.90;;;;;;;4.46;100.00;95751.47;4957073;28;20069;-52
2020/12/25 02:45:35;;;;;;;2.70;1.60;;;;;;;4.44;100.00;95756.00;4984981;28;20038;-51
2020/12/25 02:48:02;;;;;;;2.35;1.65;;;;;;;4.67;100.00;95754.13;4956041;28;20396;-52
2020/12/25 02:50:29;;;;;;;1.73;1.10;;;;;;;4.56;100.00;95762.00;4986310;28;20034;-49
2020/12/25 02:52:56;;;;;;;1.17;1.00;;;;;;;4.68;100.00;95761.84;4927709;28;20238;-50
2020/12/25 02:55:24;;;;;;;1.25;1.00;;;;;;;4.43;100.00;95762.16;4988492;28;20046;-51
2020/12/25 02:57:51;;;;;;;2.45;1.52;;;;;;;4.41;100.00;95759.69;4956809;28;20124;-53
2020/12/25 03:00:18;;;;;;;3.50;1.50;;;;;;;4.52;100.00;95757.03;4983808;28;20442;-50
2020/12/25 03:02:48;;;;;;;1.98;1.58;;;;;;;4.44;100.00;95767.28;4985486;28;20114;-51
2020/12/25 03:05:32;;;;;;;1.77;1.45;;;;;;;4.40;100.00;95762.41;4987767;28;20054;-52
2020/12/25 03:07:59;;;;;;;1.40;1.25;;;;;;;4.40;100.00;95760.63;4987471;28;20062;-52
2020/12/25 03:10:26;;;;;;;1.83;1.45;;;;;;;4.45;100.00;95778.56;4952149;28;20045;-53
2020/12/25 03:12:53;;;;;;;2.00;1.35;;;;;;;4.43;100.00;95760.38;4988160;28;20054;-51
2020/12/25 03:15:21;;;;;;;2.50;1.80;;;;;;;4.45;100.00;95768.94;4955863;28;20042;-51
2020/12/25 03:17:48;;;;;;;1.90;1.50;;;;;;;4.55;100.00;95770.81;4989269;28;20453;-50
2020/12/25 03:20:15;;;;;;;2.55;1.90;;;;;;;4.51;100.00;95770.22;4954969;28;20038;-56
2020/12/25 03:22:42;;;;;;;2.78;1.77;;;;;;;4.40;100.00;95775.47;4988209;28;20130;-54
2020/12/25 03:25:09;;;;;;;1.92;1.60;;;;;;;4.45;100.00;95778.56;4958946;28;20043;-52
2020/12/25 03:27:38;;;;;;;1.55;1.08;;;;;;;4.35;100.00;95777.63;4987471;28;20056;-55
2020/12/25 03:30:05;;;;;;;2.00;1.42;;;;;;;4.33;100.00;95789.97;4946283;28;20070;-54
2020/12/25 03:32:32;;;;;;;2.22;1.75;;;;;;;4.30;100.00;95788.41;4981126;28;20050;-52
2020/12/25 03:34:59;;;;;;;0.80;0.80;;;;;;;4.11;100.00;95789.06;4949358;28;20042;-52
2020/12/25 03:37:26;;;;;;;1.52;1.08;;;;;;;3.98;100.00;95794.41;4982124;28;20034;-52
2020/12/25 03:39:53;;;;;;;0.80;0.60;;;;;;;3.84;100.00;95807.72;4949349;28;20054;-53
2020/12/25 03:42:21;;;;;;;0.40;0.40;;;;;;;3.55;100.00;95805.59;4982200;28;20045;-55
2020/12/25 03:44:54;;;;;;;0.30;0.30;;;;;;;3.51;100.00;95809.38;4949528;28;20101;-53
2020/12/25 03:47:23;;;;;;;0.22;0.20;;;;;;;3.21;100.00;95812.53;4965890;28;20045;-52
2020/12/25 03:49:50;;;;;;;0.40;0.40;;;;;;;3.14;100.00;95821.75;4957190;28;20458;-55
2020/12/25 03:52:17;;;;;;;0.40;0.35;;;;;;;3.11;100.00;95818.56;4988635;28;20125;-56
2020/12/25 03:54:44;;;;;;;0.40;0.38;;;;;;;2.91;100.00;95827.84;4984548;28;20046;-56
2020/12/25 03:57:11;;;;;;;0.80;0.60;;;;;;;2.83;100.00;95844.03;4952825;28;20412;-55
2020/12/25 03:59:38;;;;;;;0.68;0.52;;;;;;;2.74;100.00;95837.72;4983694;28;20042;-52
2020/12/25 04:02:06;;;;;;;0.40;0.40;;;;;;;2.65;100.00;95855.75;4944643;28;20125;-51
2020/12/25 04:04:33;;;;;;;0.85;0.68;;;;;;;2.62;100.00;95869.84;4981821;28;20429;-54
2020/12/25 04:07:00;;;;;;;0.40;0.40;;;;;;;2.46;100.00;95872.72;4943809;28;20046;-50
2020/12/25 04:09:27;;;;;;;0.30;0.30;;;;;;;2.36;100.00;95884.72;4987669;28;20042;-52
2020/12/25 04:11:55;;;;;;;0.40;0.40;;;;;;;2.24;100.00;95893.41;4952405;28;20198;-49
2020/12/25 04:14:22;;;;;;;0.38;0.38;;;;;;;2.25;100.00;95900.25;4979810;28;20046;-49
2020/12/25 04:16:49;;;;;;;0.40;0.40;;;;;;;2.21;100.00;95910.03;4956815;28;20558;-52
2020/12/25 04:19:16;;;;;;;0.47;0.47;;;;;;;2.20;100.00;95917.94;4985129;28;20536;-55
2020/12/25 04:21:44;;;;;;;0.60;0.50;;;;;;;2.15;100.00;95926.06;4939884;28;20501;-52
2020/12/25 04:24:11;;;;;;;0.40;0.40;;;;;;;2.13;100.00;95935.72;4988366;28;20117;-53
2020/12/25 04:26:38;;;;;;;0.40;0.40;;;;;;;2.08;100.00;95940.44;4951261;28;20061;-51
2020/12/25 04:29:05;;;;;;;0.45;0.40;;;;;;;2.07;100.00;95931.81;5001504;28;20493;-51
2020/12/25 04:31:32;;;;;;;0.40;0.40;;;;;;;1.95;100.00;95939.59;4949603;28;20564;-50
2020/12/25 04:33:59;;;;;;;0.40;0.40;;;;;;;1.94;100.00;95937.94;4986109;28;20044;-53
2020/12/25 04:36:31;;;;;;;;;;;;;;;1.83;100.00;95951.69;4941592;28;20489;-53
2020/12/25 04:38:58;;;;;;;0.30;0.30;;;;;;;1.91;100.00;95959.78;4982282;28;20006;-51
2020/12/25 04:41:25;;;;;;;0.50;0.40;;;;;;;1.89;100.00;95959.91;4985686;28;20046;-51
2020/12/25 04:43:55;;;;;;;0.57;0.50;;;;;;;1.93;100.00;95965.72;4945701;28;20409;-51
2020/12/25 04:46:22;;;;;;;0.75;0.60;;;;;;;1.86;100.00;95973.09;4979465;28;20066;-49
2020/12/25 04:48:49;;;;;;;0.40;0.40;;;;;;;1.77;100.00;95978.91;4956187;28;20054;-51
2020/12/25 04:51:17;;;;;;;0.32;0.32;;;;;;;1.74;100.00;95976.50;4983627;28;20038;-50
2020/12/25 04:53:50;;;;;;;0.47;0.47;;;;;;;1.71;100.00;95992.31;4948215;28;20101;-49
2020/12/25 04:56:18;;;;;;;0.75;0.50;;;;;;;1.74;100.00;95994.72;4987340;28;20473;-50
2020/12/25 04:58:46;;;;;;;0.60;0.45;;;;;;;1.81;100.00;95998.56;4953049;28;20066;-50
2020/12/25 05:01:13;;;;;;;0.60;0.60;;;;;;;1.81;100.00;96008.13;4962357;28;20047;-49
2020/12/25 05:03:41;;;;;;;0.40;0.40;;;;;;;1.80;100.00;96017.69;4952014;28;20054;-50
2020/12/25 05:06:10;;;;;;;0.63;0.60;;;;;;;1.86;100.00;96013.88;4985394;28;20397;-49
2020/12/25 05:08:39;;;;;;;0.40;0.30;;;;;;;1.83;100.00;96024.47;4936075;28;20046;-55
2020/12/25 05:11:10;;;;;;;0.43;0.43;;;;;;;1.74;100.00;96032.88;4980328;28;20053;-49
2020/12/25 05:13:43;;;;;;;0.85;0.65;;;;;;;1.72;100.00;96027.78;4945884;28;20525;-48
2020/12/25 05:16:11;;;;;;;0.30;0.30;;;;;;;1.75;100.00;96047.53;4983991;28;20043;-52
2020/12/25 05:18:41;;;;;;;0.32;0.30;;;;;;;1.78;100.00;96037.75;4941119;28;20566;-52
2020/12/25 05:21:09;;;;;;;0.75;0.50;;;;;;;1.74;100.00;96043.25;4987543;28;20096;-49
2020/12/25 05:23:38;;;;;;;0.65;0.52;;;;;;;1.69;100.00;96055.72;4950251;28;22567;-49
2020/12/25 05:26:07;;;;;;;0.50;0.50;;;;;;;1.67;100.00;96066.22;4985813;28;20030;-49
2020/12/25 05:28:39;;;;;;;0.68;0.68;;;;;;;1.77;100.00;96061.25;4961267;28;20053;-54
2020/12/25 05:31:08;;;;;;;0.75;0.60;;;;;;;1.65;100.00;96066.34;4976642;28;20496;-52
2020/12/25 05:33:36;;;;;;;0.60;0.60;;;;;;;1.65;100.00;96078.47;4980279;28;20092;-53
2020/12/25 05:36:05;;;;;;;0.90;0.80;;;;;;;1.75;100.00;96086.50;4933727;28;20031;-52
2020/12/25 05:38:33;;;;;;;1.95;0.60;;;;;;;1.70;100.00;96083.38;4985641;28;20076;-51
2020/12/25 05:41:01;;;;;;;1.13;0.80;;;;;;;2.07;100.00;96090.44;4935030;28;20090;-51
2020/12/25 05:43:28;;;;;;;1.25;0.85;;;;;;;2.11;100.00;96091.91;4984337;28;20034;-52
2020/12/25 05:45:57;;;;;;;4.50;0.90;;;;;;;2.13;100.00;96096.97;4953610;28;20105;-50
2020/12/25 05:48:24;;;;;;;1.42;1.10;;;;;;;2.09;100.00;96103.34;4982136;28;20046;-51
2020/12/25 05:50:51;;;;;;;0.73;0.60;;;;;;;1.98;100.00;96098.84;4945678;28;20044;-50
2020/12/25 05:53:19;;;;;;;0.90;0.80;;;;;;;2.07;100.00;96115.63;4985375;28;20134;-51
2020/12/25 05:55:46;;;;;;;0.85;0.77;;;;;;;2.03;100.00;96114.13;4942657;28;20166;-52
2020/12/25 05:58:14;;;;;;;1.15;0.82;;;;;;;2.09;100.00;96111.13;4984392;28;20050;-53
2020/12/25 06:00:42;;;;;;;1.10;0.73;;;;;;;1.97;100.00;96117.16;4951544;28;20042;-49
2020/12/25 06:03:12;;;;;;;0.75;0.55;;;;;;;1.59;100.00;96123.06;4971909;28;20062;-54
2020/12/25 06:05:40;;;;;;;1.73;1.25;;;;;;;1.63;100.00;96127.97;4949951;28;20133;-49
2020/12/25 06:08:16;;;;;;;1.40;1.10;;;;;;;1.63;100.00;96135.75;4988874;28;20050;-52
2020/12/25 06:10:46;;;;;;;1.58;1.08;;;;;;;1.61;100.00;96142.81;4954065;28;20053;-50
2020/12/25 06:13:14;;;;;;;1.38;1.02;;;;;;;1.60;100.00;96135.94;4987381;28;20042;-54
2020/12/25 06:15:48;;;;;;;1.60;1.05;;;;;;;1.57;100.00;96148.31;4959266;28;20053;-50
2020/12/25 06:18:29;;;;;;;1.50;0.90;;;;;;;1.57;100.00;96150.91;4989757;28;20046;-53
2020/12/25 06:20:59;;;;;;;1.02;0.60;;;;;;;1.58;100.00;96153.41;4941638;28;20066;-53
2020/12/25 06:23:30;;;;;;;1.55;1.20;;;;;;;1.56;100.00;96167.44;4987138;28;20052;-53
2020/12/25 06:25:57;;;;;;;;;;;;;;;1.51;100.00;96156.47;4952412;28;20050;-54
2020/12/25 06:28:24;;;;;;;2.90;1.50;;;;;;;1.58;100.00;96160.34;4981789;28;20226;-54
2020/12/25 06:30:51;;;;;;;1.73;1.05;;;;;;;1.55;100.00;96164.00;4987103;28;20057;-54
2020/12/25 06:33:26;;;;;;;1.80;1.25;;;;;;;1.54;100.00;96164.91;4959223;28;20041;-50
2020/12/25 06:35:58;;;;;;;1.83;1.35;;;;;;;1.62;100.00;96167.06;4977217;28;20442;-53
2020/12/25 06:38:26;;;;;;;2.20;1.33;;;;;;;1.53;100.00;96165.84;4957823;28;20041;-49
2020/12/25 06:40:59;;;;;;;2.15;1.35;;;;;;;1.54;100.00;96164.91;4988363;28;20039;-55
2020/12/25 06:43:28;;;;;;;2.45;1.60;;;;;;;1.54;100.00;96177.91;4939110;28;20046;-50
2020/12/25 06:46:06;;;;;;;3.13;2.05;;;;;;;1.42;100.00;96184.72;4981790;28;20050;-56
2020/12/25 06:48:34;;;;;;;2.70;1.60;;;;;;;1.34;100.00;96184.38;4945349;28;20494;-55
2020/12/25 06:51:02;;;;;;;2.67;1.70;;;;;;;1.40;100.00;96196.94;4990722;28;20055;-54
2020/12/25 06:53:34;;;;;;;4.82;2.60;;;;;;;1.36;100.00;96199.84;4954710;28;20036;-53
2020/12/25 06:56:12;;;;;;;4.72;2.80;;;;;;;1.37;100.00;96201.50;4988569;28;20508;-55
2020/12/25 06:58:45;;;;;;;2.95;1.95;;;;;;;1.34;100.00;96218.13;4954444;28;20060;-54
2020/12/25 07:01:13;;;;;;;3.50;2.22;;;;;;;1.37;100.00;96214.50;4982492;28;20438;-52
2020/12/25 07:03:41;;;;;;;2.85;1.42;;;;;;;1.36;100.00;96221.47;4944987;28;20054;-53
2020/12/25 07:06:11;;;;;;;4.13;2.50;;;;;;;1.44;100.00;96223.56;4994007;28;20412;-52
2020/12/25 07:08:44;;;;;;;4.28;2.38;;;;;;;1.50;100.00;96230.16;4951442;28;20489;-55
2020/12/25 07:11:12;;;;;;;5.20;2.97;;;;;;;1.62;100.00;96234.63;4984819;28;20048;-54
2020/12/25 07:13:41;;;;;;;3.03;1.80;;;;;;;1.62;100.00;96235.44;4955677;28;20042;-53
2020/12/25 07:16:10;;;;;;;4.20;2.45;;;;;;;1.61;100.00;96235.53;4979599;28;20039;-53
2020/12/25 07:18:37;;;;;;;2.22;1.15;;;;;;;1.61;100.00;96243.31;4944098;28;20089;-51
2020/12/25 07:21:07;;;;;;;3.72;2.13;;;;;;;1.59;100.00;96251.22;4986370;28;20042;-53
2020/12/25 07:23:41;;;;;;;3.75;2.45;;;;;;;1.62;100.00;96245.84;4944280;28;20104;-55
2020/12/25 07:26:09;;;;;;;5.00;2.63;;;;;;;1.70;100.00;96255.75;4986209;28;20065;-51
2020/12/25 07:28:36;;;;;;;2.22;1.63;;;;;;;1.67;100.00;96255.94;4954081;28;22541;-53
2020/12/25 07:31:03;;;;;;;5.40;2.45;;;;;;;1.73;100.00;96260.78;4987141;28;20440;-57
2020/12/25 07:33:30;;;;;;;2.95;1.63;;;;;;;1.70;100.00;96255.75;4951746;28;20038;-55
2020/12/25 07:35:58;;;;;;;4.10;2.30;;;;;;;1.77;100.00;96264.84;4960425;28;20116;-53
2020/12/25 07:38:29;;;;;;;;;;;;;;;1.81;100.00;96266.31;4981918;28;20034;-53
2020/12/25 07:40:56;;;;;;;2.90;1.83;;;;;;;1.82;100.00;96270.56;4927580;28;19949;-56
2020/12/25 07:43:23;;;;;;;2.75;1.63;;;;;;;1.85;100.00;96275.59;4978215;28;20497;-57
2020/12/25 07:45:50;;;;;;;4.85;2.47;;;;;;;1.90;100.00;96280.53;4950517;28;20054;-54
2020/12/25 07:48:19;;;;;;;3.78;2.28;;;;;;;1.86;100.00;96281.66;4981322;28;20049;-57
2020/12/25 07:50:47;;;;;;;3.60;1.98;;;;;;;1.88;100.00;96288.41;4958260;28;20523;-53
2020/12/25 07:53:15;;;;;;;5.13;2.72;;;;;;;1.96;100.00;96289.69;4986385;28;20125;-56
2020/12/25 07:55:45;;;;;;;4.07;2.45;;;;;;;1.98;100.00;96285.22;4935873;28;20513;-56
2020/12/25 07:58:13;;;;;;;4.53;2.72;;;;;;;1.99;100.00;96284.28;4984899;28;20050;-55
2020/12/25 08:00:41;;;;;;;4.00;2.50;;;;;;;2.05;100.00;96300.34;4931892;28;20109;-53
2020/12/25 08:03:09;;;;;;;3.50;2.20;;;;;;;2.10;100.00;96298.31;4985623;28;20057;-57
2020/12/25 08:05:37;;;;;;;2.83;1.65;;;;;;;2.03;100.00;96299.63;4948417;28;20093;-54
2020/12/25 08:08:04;;;;;;;3.75;2.17;;;;;;;2.12;100.00;96293.81;4987549;28;20026;-54
2020/12/25 08:10:34;;;;;;;4.00;2.75;;;;;;;2.17;100.00;96298.75;4951766;28;20038;-53
2020/12/25 08:13:05;;;;;;;3.28;2.22;;;;;;;2.09;100.00;96307.03;4979827;28;20516;-57
2020/12/25 08:15:33;;;;;;;2.22;1.38;;;;;;;2.10;100.00;96297.47;4942774;28;20062;-56
2020/12/25 08:18:03;;;;;;;6.07;2.85;;;;;;;2.16;100.00;96304.88;4988130;28;20046;-54
2020/12/25 08:20:32;;;;;;;4.80;2.50;;;;;;;2.17;100.00;96303.09;4945578;28;23624;-56
2020/12/25 08:22:59;;;;;;;4.63;2.00;;;;;;;2.21;100.00;96307.19;4969043;28;20039;-54
2020/12/25 08:25:27;;;;;;;3.92;2.58;;;;;;;2.19;100.00;96309.06;4961406;28;20050;-54
2020/12/25 08:27:55;;;;;;;5.15;3.25;;;;;;;2.29;100.00;96310.13;4973091;28;20495;-55
2020/12/25 08:30:23;;;;;;;4.70;2.25;;;;;;;2.21;100.00;96304.59;4985771;28;20047;-57
2020/12/25 08:32:55;;;;;;;4.15;2.28;;;;;;;2.26;100.00;96318.13;4941861;28;20058;-52
2020/12/25 08:35:25;;;;;;;4.82;2.80;;;;;;;2.37;100.00;96315.69;4979482;28;20361;-53
2020/12/25 08:38:01;;;;;;;3.63;2.42;;;;;;;2.32;100.00;96317.75;4948398;28;20126;-53
2020/12/25 08:40:32;;;;;;;4.70;3.13;;;;;;;2.38;100.00;96319.97;4986655;28;20030;-54
2020/12/25 08:43:06;;;;;;;3.80;1.80;;;;;;;2.33;100.00;96330.66;4963418;28;20074;-52
2020/12/25 08:45:34;;;;;;;6.75;3.13;;;;;;;2.41;100.00;96332.78;4984603;28;20077;-52
2020/12/25 08:48:09;;;;;;;3.90;2.47;;;;;;;2.35;100.00;96334.00;4937020;28;20035;-52
2020/12/25 08:50:38;;;;;;;4.15;2.20;;;;;;;2.39;100.00;96339.84;4985441;28;20046;-51
2020/12/25 08:53:19;;;;;;;4.50;2.70;;;;;;;2.38;100.00;96335.59;4937515;28;20505;-54
2020/12/25 08:55:51;;;;;;;3.08;2.08;;;;;;;2.44;100.00;96348.19;4986928;28;20042;-51
2020/12/25 08:58:19;;;;;;;3.03;1.90;;;;;;;2.53;100.00;96344.19;4951868;28;20565;-53
2020/12/25 09:01:01;;;;;;;5.32;2.08;;;;;;;2.52;100.00;96356.34;4979927;28;20053;-54
2020/12/25 09:03:42;;;;;;;5.68;2.75;;;;;;;2.59;100.00;96347.22;4957100;28;20045;-55
2020/12/25 09:06:10;;;;;;;4.75;2.33;;;;;;;2.64;100.00;96353.91;4988450;28;20459;-55
2020/12/25 09:08:38;;;;;;;5.00;2.83;;;;;;;2.67;100.00;96345.88;4939464;28;20057;-57
2020/12/25 09:11:09;;;;;;;4.10;2.67;;;;;;;2.73;100.00;96364.56;4986295;28;20039;-56
2020/12/25 09:13:37;;;;;;;4.30;2.60;;;;;;;2.80;100.00;96365.81;4949766;28;20301;-55
2020/12/25 09:16:07;;;;;;;4.28;2.40;;;;;;;2.85;100.00;96368.13;4979380;28;20073;-57
2020/12/25 09:18:34;;;;;;;4.78;2.40;;;;;;;2.85;100.00;96373.34;4957196;28;20054;-52
2020/12/25 09:21:02;;;;;;;3.22;2.20;;;;;;;2.87;100.00;96375.84;4987383;28;20155;-55
2020/12/25 09:23:29;;;;;;;3.95;2.63;;;;;;;3.03;100.00;96372.16;4947603;28;20045;-54
2020/12/25 09:25:57;;;;;;;3.47;1.90;;;;;;;2.90;100.00;96384.31;4980973;28;20140;-49
2020/12/25 09:28:27;;;;;;;5.88;2.28;;;;;;;2.93;100.00;96385.88;4945531;28;20061;-57
2020/12/25 09:30:55;;;;;;;2.90;1.80;;;;;;;2.84;100.00;96380.31;4981656;28;20081;-54
2020/12/25 09:33:23;;;;;;;3.55;1.95;;;;;;;2.73;100.00;96390.59;4949334;28;24575;-53
2020/12/25 09:35:53;;;;;;;3.72;2.15;;;;;;;2.80;100.00;96381.44;4980273;28;20046;-51
2020/12/25 09:38:20;;;;;;;3.35;2.20;;;;;;;2.80;100.00;96383.22;4945692;28;20034;-54
2020/12/25 09:40:48;;;;;;;2.15;1.38;;;;;;;2.74;100.00;96391.44;4976552;28;20042;-51
2020/12/25 09:43:15;;;;;;;3.83;2.08;;;;;;;2.80;100.00;96393.63;4986511;28;20034;-51
2020/12/25 09:45:43;;;;;;;3.17;1.92;;;;;;;2.85;100.00;96384.56;4944348;28;20077;-50
2020/12/25 09:48:11;;;;;;;3.45;1.65;;;;;;;2.89;100.00;96393.06;4981888;28;20073;-51
2020/12/25 09:50:39;;;;;;;3.17;1.90;;;;;;;2.97;100.00;96393.38;4950220;28;20043;-52
2020/12/25 09:53:06;;;;;;;3.42;2.08;;;;;;;3.07;100.00;96389.25;4985578;28;21030;-52
2020/12/25 09:55:36;;;;;;;3.33;1.88;;;;;;;3.19;100.00;96391.97;4946802;28;20043;-54
2020/12/25 09:58:06;;;;;;;2.65;1.80;;;;;;;2.95;100.00;96390.03;4981775;28;20537;-51
2020/12/25 10:00:33;;;;;;;3.65;2.20;;;;;;;3.06;100.00;96389.31;4949028;28;20086;-54
2020/12/25 10:03:00;;;;;;;3.85;2.38;;;;;;;3.04;100.00;96389.44;4981789;28;20043;-52
2020/12/25 10:05:27;;;;;;;3.17;2.13;;;;;;;3.12;100.00;96381.13;4935808;28;20096;-51
2020/12/25 10:07:55;;;;;;;4.68;2.42;;;;;;;3.24;100.00;96389.91;4986952;28;20038;-53
2020/12/25 10:10:23;;;;;;;3.40;2.17;;;;;;;3.30;100.00;96387.75;4950241;28;20030;-53
2020/12/25 10:12:51;;;;;;;3.60;1.98;;;;;;;3.30;100.00;96389.47;4978510;28;20046;-51
2020/12/25 10:15:21;;;;;;;;;;;;;;;3.15;100.00;96390.50;4952426;28;20070;-56
2020/12/25 10:17:48;;;;;;;3.47;2.00;;;;;;;3.29;100.00;96386.06;4988685;28;19924;-52
2020/12/25 10:20:15;;;;;;;3.50;1.90;;;;;;;3.19;100.00;96379.78;4956030;28;22429;-56
2020/12/25 10:22:42;;;;;;;3.65;2.35;;;;;;;3.12;100.00;96382.91;4982040;28;20054;-52
2020/12/25 10:25:10;;;;;;;3.92;2.50;;;;;;;3.47;100.00;96383.16;4934662;28;20038;-54
2020/12/25 10:27:41;;;;;;;5.18;2.55;;;;;;;3.57;100.00;96385.03;4969365;28;20051;-54
2020/12/25 10:30:10;;;;;;;5.65;2.63;;;;;;;3.60;100.00;96381.41;4985615;28;20117;-53
2020/12/25 10:32:39;;;;;;;4.28;2.17;;;;;;;3.54;100.00;96377.44;4971166;28;20038;-56
2020/12/25 10:35:06;;;;;;;3.40;2.17;;;;;;;3.56;100.00;96379.94;4984227;28;20052;-57
2020/12/25 10:37:35;;;;;;;3.95;2.50;;;;;;;3.67;100.00;96361.78;4926436;28;20100;-55
2020/12/25 10:40:04;;;;;;;7.93;2.70;;;;;;;3.95;100.00;96371.16;4985686;28;20053;-54
2020/12/25 10:42:32;;;;;;;3.45;1.98;;;;;;;3.97;100.00;96363.22;4945523;28;20366;-55
2020/12/25 10:44:59;;;;;;;4.03;2.40;;;;;;;3.87;100.00;96364.81;4987306;28;20587;-55
2020/12/25 10:47:26;;;;;;;3.90;2.47;;;;;;;3.88;100.00;96363.84;4950713;28;20057;-55
2020/12/25 10:49:53;;;;;;;4.78;2.03;;;;;;;3.79;100.00;96370.56;4988147;28;20045;-57
2020/12/25 10:52:21;;;;;;;4.45;2.63;;;;;;;3.90;100.00;96375.88;4951755;28;20427;-55
2020/12/25 10:54:49;;;;;;;4.72;2.70;;;;;;;3.84;100.00;96365.84;4985102;28;20053;-55
2020/12/25 10:57:16;;;;;;;4.28;2.75;;;;;;;4.08;100.00;96373.75;4953706;28;20259;-58
2020/12/25 10:59:44;;;;;;;4.78;3.22;;;;;;;4.37;100.00;96373.47;4990476;28;20465;-54
2020/12/25 11:02:12;;;;;;;4.45;2.72;;;;;;;4.25;100.00;96370.78;4948286;28;20039;-53
2020/12/25 11:04:39;;;;;;;3.63;2.28;;;;;;;4.06;98.86;96375.66;4989368;28;20054;-52
2020/12/25 11:07:06;;;;;;;4.93;2.60;;;;;;;3.93;100.00;96383.50;4951390;28;20035;-54
2020/12/25 11:09:33;;;;;;;3.63;2.25;;;;;;;3.68;100.00;96379.13;4984751;28;20108;-56
2020/12/25 11:12:00;;;;;;;5.30;3.17;;;;;;;3.69;100.00;96372.13;4952712;28;20485;-53
2020/12/25 11:14:27;;;;;;;6.32;3.60;;;;;;;3.75;100.00;96380.38;4987605;28;20441;-53
2020/12/25 11:16:56;;;;;;;6.97;3.47;;;;;;;3.71;100.00;96378.88;4984319;28;20509;-50
2020/12/25 11:19:23;;;;;;;5.82;3.75;;;;;;;3.80;100.00;96380.03;4946158;28;20442;-54
2020/12/25 11:21:50;;;;;;;5.95;3.15;;;;;;;3.57;100.00;96382.44;4986773;28;20039;-52
2020/12/25 11:24:17;;;;;;;5.32;3.25;;;;;;;3.35;100.00;96377.00;4951604;28;20423;-52
2020/12/25 11:26:44;;;;;;;9.63;3.97;;;;;;;3.32;100.00;96383.25;4987582;28;20069;-53
2020/12/25 11:29:12;;;;;;;4.82;3.38;;;;;;;3.20;100.00;96389.28;4950612;28;20042;-54
2020/12/25 11:31:39;;;;;;;5.30;2.75;;;;;;;3.30;100.00;96381.66;4986873;28;20489;-53
2020/12/25 11:34:07;;;;;;;5.97;3.47;;;;;;;3.32;100.00;96382.41;4936924;28;20038;-54
2020/12/25 11:36:35;;;;;;;6.55;4.05;;;;;;;3.38;100.00;96379.41;4981774;28;20121;-54
2020/12/25 11:39:04;;;;;;;6.63;4.05;;;;;;;3.31;100.00;96380.75;4954423;28;20113;-57